Latest Coastal Weather Observations for Yanakie

IDV60701

Issued at 4:31 pm EST Tuesday 21 April 2015 (issued every 10 minutes, with the page automatically refreshed every 10 minutes)

About coastal observations | Map of coastal stations | Coastal observations for VIC | Marine services | Other Formats
Station Details ID: 085301 Name: YANAKIE Lat: -38.81 Lon: 146.19 Height: 13.3 m
Data from the previous 72 hours. | See also: Recent months at Yanakie
Date/Time
EST
Temp

°C
Wind Pressure Rain
since 9am
mm
Weather Cloud Vis
km
Sea
Height
m
Swell
Dir
 
Speed
knots
Gust
knots
hPa Trend Height
m
Period
s
Dir
21/04:00pm 15.5 E 8 11 1030.8 - - - - - - - - -
21/03:00pm - - - - - - - - - - - - - -
21/02:30pm 16.4 ENE 9 12 1030.8 - - - - - - - - -
21/01:30pm 16.4 ENE 9 13 1030.9 - 0.0 - - - - - - -
21/01:00pm 16.3 ENE 8 12 1031.2 - 0.0 - - - - - - -
21/12:30pm 16.8 ENE 8 12 1031.7 - 0.0 - - - - - - -
21/12:00pm 16.7 ENE 6 8 1032.0 - 0.0 - - - - - - -
21/11:30am 16.3 ENE 5 8 1032.3 - 0.0 - - - - - - -
21/11:00am 16.3 ENE 6 10 1032.5 - 0.0 - - - - - - -
21/10:30am 16.2 ENE 5 8 1032.7 - 0.0 - - - - - - -
21/10:00am 15.7 E 3 8 1033.0 - 0.0 - - - - - - -
21/09:30am 15.1 CALM 0 1 1033.2 - 0.0 - - - - - - -
21/09:00am 13.5 N 1 2 1033.5 - 0.0 - - - - - - -
21/08:30am 11.7 NNE 2 3 1033.6 - - - - - - - - -
21/08:00am 9.7 CALM 0 1 1033.7 - - - - - - - - -
21/07:30am 8.0 N 1 3 1033.6 - - - - - - - - -
21/07:00am 6.7 NNE 4 4 1033.5 - - - - - - - - -
21/06:30am 6.2 NNE 3 4 1033.4 - - - - - - - - -
21/06:00am 5.2 NE 3 4 1033.3 - - - - - - - - -
21/05:30am 4.7 CALM 0 0 1032.9 - - - - - - - - -
21/05:00am 4.8 CALM 0 0 1032.7 - - - - - - - - -
21/04:30am 5.7 CALM 0 0 1032.8 - - - - - - - - -
21/04:00am 4.9 SW 2 3 1032.7 - - - - - - - - -
21/03:30am 5.5 CALM 0 0 1033.0 - - - - - - - - -
21/03:00am 6.4 NNW 1 1 1033.5 - 0.0 - - - - - - -
21/02:30am 5.3 N 1 3 1033.7 - - - - - - - - -
21/02:00am 4.7 N 3 4 1033.9 - - - - - - - - -
21/01:30am 5.5 N 3 4 1034.2 - - - - - - - - -
21/01:00am 4.5 N 2 3 1034.3 - - - - - - - - -
21/12:30am 4.7 NNW 1 2 1034.5 - - - - - - - - -
21/12:00am 5.8 N 4 5 1034.6 - - - - - - - - -
 
Date/Time
EST
Temp

°C
Wind Pressure Rain
since 9am
mm
Weather Cloud Vis
km
Sea
Height
m
Swell
Dir
 
Speed
knots
Gust
knots
hPa Trend Height
m
Period
s
Dir
20/11:30pm 4.5 N 2 3 1034.8 - - - - - - - - -
20/11:00pm 5.3 ENE 2 3 1035.0 - - - - - - - - -
20/10:30pm 7.2 E 3 3 1035.4 - - - - - - - - -
20/10:00pm 5.5 ESE 2 3 1035.5 - - - - - - - - -
20/09:30pm 7.0 ESE 3 4 1035.7 - - - - - - - - -
20/09:00pm 7.0 ESE 2 3 1035.7 - - - - - - - - -
20/08:30pm 8.4 SE 3 3 1035.6 - - - - - - - - -
20/08:00pm 8.1 SE 3 3 1035.5 - - - - - - - - -
20/07:30pm 8.8 SE 3 3 1035.5 - - - - - - - - -
20/07:00pm 8.6 SE 3 4 1035.6 - - - - - - - - -
20/06:30pm 9.0 SE 3 4 1035.6 - - - - - - - - -
20/06:00pm 9.7 SSE 3 4 1035.5 - - - - - - - - -
20/05:30pm 11.5 S 4 8 1035.2 - - - - - - - - -
20/05:00pm 13.6 - - - 1035.1 - - - - - - - - -
20/04:30pm 14.0 S 7 11 1035.1 - - - - - - - - -
20/04:00pm 14.9 S 7 11 1035.1 - - - - - - - - -
20/03:30pm 15.2 S 8 12 1035.2 - - - - - - - - -
20/02:30pm 16.9 - - - 1035.2 - - - - - - - - -
20/02:00pm 17.1 SSW 10 14 1035.3 - - - - - - - - -
20/01:30pm 16.6 S 10 15 1035.5 - - - - - - - - -
20/12:30pm 15.9 S 9 13 1036.1 - 0.0 - - - - - - -
20/12:00pm 14.1 S 9 13 1036.5 - 0.0 - - - - - - -
20/11:30am 16.0 S 8 13 1036.9 - 0.0 - - - - - - -
20/11:00am 13.9 S 6 9 1037.0 - 0.0 - - - - - - -
20/10:30am 15.6 SSE 5 9 1036.9 - 0.0 - - - - - - -
20/10:00am 14.6 SSE 7 10 1037.0 - 0.0 - - - - - - -
20/09:30am 14.8 SSE 6 10 1037.0 - 0.0 - - - - - - -
20/09:00am 13.6 SSE 4 7 1036.9 - 2.6 - - - - - - -
20/08:30am 12.9 SSE 3 5 1036.9 - 2.6 - - - - - - -
20/08:00am 11.9 SE 2 3 1036.7 - 2.6 - - - - - - -
20/07:30am 8.6 SSE 3 3 1036.3 - 2.6 - - - - - - -
20/07:00am 8.4 SE 3 3 1036.0 - 2.6 - - - - - - -
20/06:30am 8.9 SSE 3 4 1035.7 - 2.6 - - - - - - -
20/06:00am 8.8 SSE 3 4 1035.5 - 2.6 - - - - - - -
20/05:30am 9.5 S 3 5 1035.3 - 2.6 - - - - - - -
20/05:00am 9.7 SSE 5 9 1035.1 - 2.6 - - - - - - -
20/04:30am 9.2 S 6 9 1034.8 - 2.4 - - - - - - -
20/04:00am 9.0 SSW 6 9 1034.6 - 2.2 - - - - - - -
20/03:30am 9.1 SSE 5 9 1034.6 - 1.6 - - - - - - -
20/03:00am 9.7 ESE 4 5 1034.6 - 1.4 - - - - - - -
20/02:30am 9.0 E 4 6 1034.6 - 1.4 - - - - - - -
20/02:00am 8.4 SSE 2 3 1034.5 - 1.4 - - - - - - -
20/01:30am 9.1 SE 3 6 1034.5 - 1.4 - - - - - - -
20/01:00am 9.4 SE 9 13 1034.9 - 1.0 - - - - - - -
20/12:30am 10.1 S 4 10 1034.5 - 0.4 - - - - - - -
20/12:00am 11.6 S 10 13 1034.4 - 0.0 - - - - - - -
 
Date/Time
EST
Temp

°C
Wind Pressure Rain
since 9am
mm
Weather Cloud Vis
km
Sea
Height
m
Swell
Dir
 
Speed
knots
Gust
knots
hPa Trend Height
m
Period
s
Dir
19/11:30pm 10.4 S 6 8 1034.4 - 0.0 - - - - - - -
19/11:00pm 9.7 S 6 7 1034.3 - 0.0 - - - - - - -
19/10:30pm 10.3 S 6 8 1034.3 - 0.0 - - - - - - -
19/10:00pm 11.6 S 9 13 1034.2 - 0.0 - - - - - - -
19/09:30pm 10.7 S 6 8 1033.9 - 0.0 - - - - - - -
19/09:00pm 11.4 S 8 13 1033.5 - 0.0 - - - - - - -
19/08:30pm 11.3 S 9 14 1033.1 - 0.0 - - - - - - -
19/08:00pm 11.3 S 8 13 1032.6 - 0.0 - - - - - - -
19/07:30pm 11.1 S 9 19 1032.3 - 0.0 - - - - - - -
19/07:00pm 11.3 SSW 12 16 1031.9 - 0.0 - - - - - - -
19/06:30pm 11.6 S 11 16 1031.3 - 0.0 - - - - - - -
19/06:00pm 11.6 SSW 12 15 1030.8 - 0.0 - - - - - - -
19/05:30pm 11.3 SSW 10 15 1030.4 - 0.0 - - - - - - -
19/05:00pm 12.4 SSW 13 18 1030.1 - 0.0 - - - - - - -
19/04:30pm 13.5 SSW 13 22 1029.7 - 0.0 - - - - - - -
19/04:00pm 14.0 SSW 15 20 1029.3 - 0.0 - - - - - - -
19/03:30pm 13.8 SSW 16 26 1029.0 - 0.0 - - - - - - -
19/03:04pm 14.5 SSW 16 26 1028.9 - 0.0 - - - - - - -
19/03:00pm 13.9 SSW 15 19 1028.9 - 0.0 - - - - - - -
19/02:30pm 15.2 SSW 16 22 1028.5 - 0.0 - - - - - - -
19/02:00pm 16.5 SSW 18 25 1028.0 - 0.0 - - - - - - -
19/01:30pm 15.0 SSW 13 21 1027.7 - 0.0 - - - - - - -
19/01:00pm 16.2 SSW 19 25 1027.4 - 0.0 - - - - - - -
19/12:30pm 16.0 SSW 18 24 1027.2 - 0.0 - - - - - - -
19/12:00pm 16.0 SSW 16 23 1027.0 - 0.0 - - - - - - -
19/11:30am 13.9 SSW 15 24 1026.8 - 0.0 - - - - - - -
19/11:00am 14.7 SSW 17 24 1026.4 - 0.0 - - - - - - -
19/10:30am 14.7 SSW 17 25 1025.9 - 0.0 - - - - - - -
19/10:00am 14.6 SSW 15 21 1025.5 - 0.0 - - - - - - -
19/09:48am 13.9 SSW 19 30 1025.4 - 0.0 - - - - - - -
19/09:30am 13.0 SSW 19 24 1025.0 - 0.0 - - - - - - -
19/09:00am 12.7 SSW 16 23 1024.4 - 6.0 - - - - - - -
19/08:30am 11.8 SSW 18 24 1023.6 - - - - - - - - -
19/08:00am 11.5 SSW 17 26 1022.8 - - - - - - - - -
19/07:30am 10.9 SW 17 23 1022.0 - - - - - - - - -
19/07:00am 10.1 WSW 14 19 1021.3 - - - - - - - - -
19/06:30am 9.7 W 15 19 1020.7 - - - - - - - - -
19/06:01am 10.0 SSW 16 26 1020.2 - - - - - - - - -
19/06:00am 10.0 SSW 17 26 1020.2 - - - - - - - - -
19/05:30am 10.2 SSW 15 19 1019.5 - - - - - - - - -
19/05:00am 10.0 SW 18 24 1019.0 - - - - - - - - -
19/04:34am 11.2 SW 18 29 1018.5 - - - - - - - - -
19/04:30am 11.3 SW 20 26 1018.3 - - - - - - - - -
19/04:19am 12.3 SW 18 29 1018.1 - - - - - - - - -
19/04:00am 12.0 WSW 18 26 1017.7 - - - - - - - - -
19/03:30am 11.8 WSW 17 23 1017.3 - - - - - - - - -
19/03:12am 11.7 WSW 16 26 1017.1 - - - - - - - - -
19/03:00am 11.8 WSW 18 24 1016.9 - 3.0 - - - - - - -
19/02:30am 12.0 WSW 17 24 1016.8 - - - - - - - - -
19/02:00am 12.2 WSW 16 23 1016.7 - - - - - - - - -
19/01:30am 11.7 WSW 12 16 1016.6 - - - - - - - - -
19/01:00am 10.9 W 12 23 1016.6 - - - - - - - - -
19/12:59am 10.8 W 11 23 1016.6 - - - - - - - - -
19/12:30am 10.6 NW 8 11 1016.4 - - - - - - - - -
19/12:00am 10.9 NW 8 12 1016.1 - - Rain - - - - - -
 
Date/Time
EST
Temp

°C
Wind Pressure Rain
since 9am
mm
Weather Cloud Vis
km
Sea
Height
m
Swell
Dir
 
Speed
knots
Gust
knots
hPa Trend Height
m
Period
s
Dir
18/11:30pm 10.9 WNW 8 12 1016.3 - - - - - - - - -
18/11:00pm 11.1 WNW 5 7 1015.9 - - - - - - - - -
18/10:30pm 11.2 WNW 8 11 1016.0 - - - - - - - - -
18/10:00pm 11.5 W 10 13 1015.7 - - - - - - - - -
18/09:30pm 11.4 WSW 10 14 1015.3 - - - - - - - - -
18/09:00pm 11.6 WSW 13 17 1014.8 - 1.0 Rain - - - - - -
18/08:30pm 11.4 WSW 16 23 1014.6 - - - - - - - - -
18/08:00pm 11.9 W 12 17 1013.9 - - - - - - - - -
18/07:30pm 12.9 WSW 17 30 1013.4 - - - - - - - - -
18/07:00pm 13.9 SW 19 25 1012.7 - - - - - - - - -
18/06:30pm 15.3 WSW 16 27 1011.9 - - - - - - - - -
18/06:26pm 16.3 W 9 27 1011.6 - - - - - - - - -
18/06:00pm 16.1 NW 4 4 1010.5 - - - - - - - - -
18/05:30pm 16.5 NNW 7 8 1010.3 - - - - - - - - -
18/05:00pm 17.1 NW 9 13 1010.1 - - - - - - - - -

Other Formats:

Comma delimited format used in spreadsheet applications
http://www.bom.gov.au/fwo/IDV60701/IDV60701.94911.axf

JavaScript Object Notation format (JSON) in row-major order
http://www.bom.gov.au/fwo/IDV60701/IDV60701.94911.json